createdAt,value
2018-09-03T00:00:46.907Z,5.58
2018-09-03T00:03:15.451Z,5.87
2018-09-03T00:05:44.006Z,4.30
2018-09-03T00:08:12.570Z,5.00
2018-09-03T00:10:41.183Z,4.25
2018-09-03T00:13:09.739Z,5.00
2018-09-03T00:15:38.312Z,4.47
2018-09-03T00:18:06.869Z,4.75
2018-09-03T00:20:35.446Z,5.42
2018-09-03T00:23:04.015Z,4.58
2018-09-03T00:25:32.557Z,5.65
2018-09-03T00:28:01.104Z,4.75
2018-09-03T00:30:29.661Z,4.92
2018-09-03T00:33:03.487Z,4.70
2018-09-03T00:35:37.402Z,4.28
2018-09-03T00:38:11.240Z,4.50
2018-09-03T00:40:45.151Z,4.35
2018-09-03T00:43:18.994Z,5.22
2018-09-03T00:45:52.891Z,4.55
2018-09-03T00:48:21.765Z,4.60
2018-09-03T00:50:50.415Z,4.95
2018-09-03T00:53:19.042Z,4.60
2018-09-03T00:55:47.594Z,4.90
2018-09-03T00:58:16.315Z,4.65
2018-09-03T01:00:44.906Z,4.47
2018-09-03T01:03:13.465Z,5.15
2018-09-03T01:05:42.294Z,5.08
2018-09-03T01:08:10.880Z,4.30
2018-09-03T01:10:39.422Z,5.55
2018-09-03T01:13:07.984Z,5.05
2018-09-03T01:15:36.567Z,4.95
2018-09-03T01:18:05.123Z,5.37
2018-09-03T01:20:33.694Z,5.00
2018-09-03T01:23:02.632Z,4.40
2018-09-03T01:25:31.181Z,4.80
2018-09-03T01:27:59.727Z,5.20
2018-09-03T01:30:28.290Z,5.25
2018-09-03T01:32:56.840Z,4.58
2018-09-03T01:35:25.398Z,4.53
2018-09-03T01:37:53.939Z,5.17
2018-09-03T01:40:22.511Z,5.22
2018-09-03T01:42:51.072Z,4.58
2018-09-03T01:45:19.843Z,4.40
2018-09-03T01:47:48.435Z,4.60
2018-09-03T01:50:16.987Z,4.85
2018-09-03T01:52:45.541Z,4.22
2018-09-03T01:55:14.087Z,4.25
2018-09-03T01:57:42.839Z,4.58
2018-09-03T02:00:11.403Z,4.53
2018-09-03T02:02:39.963Z,4.30
2018-09-03T02:05:08.623Z,4.58
2018-09-03T02:07:37.215Z,5.10
2018-09-03T02:10:06.472Z,4.85
2018-09-03T02:12:35.026Z,5.10
2018-09-03T02:15:03.580Z,5.12
2018-09-03T02:17:32.288Z,5.65
2018-09-03T02:20:00.840Z,5.03
2018-09-03T02:22:29.393Z,4.65
2018-09-03T02:24:57.998Z,5.20
2018-09-03T02:27:26.838Z,4.40
2018-09-03T02:29:55.391Z,4.70
2018-09-03T02:32:23.944Z,4.17
2018-09-03T02:34:52.721Z,4.45
2018-09-03T02:37:21.291Z,4.90
2018-09-03T02:39:49.863Z,4.33
2018-09-03T02:42:18.414Z,4.85
2018-09-03T02:44:46.993Z,4.85
2018-09-03T02:47:15.919Z,4.50
2018-09-03T02:49:44.527Z,5.12
2018-09-03T02:52:13.087Z,4.08
2018-09-03T02:54:41.797Z,4.50
2018-09-03T02:57:10.355Z,4.70
2018-09-03T02:59:39.267Z,4.42
2018-09-03T03:02:07.828Z,5.83
2018-09-03T03:04:36.387Z,5.33
2018-09-03T03:07:05.434Z,4.35
2018-09-03T03:09:33.984Z,4.97
2018-09-03T03:12:02.536Z,4.22
2018-09-03T03:14:31.283Z,5.85
2018-09-03T03:16:59.836Z,4.60
2018-09-03T03:19:28.403Z,4.83
2018-09-03T03:21:56.959Z,4.90
2018-09-03T03:24:25.518Z,6.37
2018-09-03T03:26:54.280Z,5.72
2018-09-03T03:29:22.855Z,4.85
2018-09-03T03:31:51.430Z,4.42
2018-09-03T03:34:19.979Z,4.40
2018-09-03T03:36:48.559Z,5.08
2018-09-03T03:39:17.530Z,4.62
2018-09-03T03:41:46.270Z,4.33
2018-09-03T03:44:14.810Z,5.30
2018-09-03T03:46:43.387Z,4.83
2018-09-03T03:49:12.030Z,4.60
2018-09-03T03:51:40.584Z,4.95
2018-09-03T03:54:09.131Z,4.70
2018-09-03T03:56:37.675Z,4.87
2018-09-03T03:59:06.479Z,4.92
2018-09-03T04:01:35.032Z,4.55
2018-09-03T04:04:04.186Z,4.60
2018-09-03T04:06:32.772Z,4.17
2018-09-03T04:09:01.338Z,4.55
2018-09-03T04:11:29.905Z,4.85
2018-09-03T04:13:58.787Z,5.30
2018-09-03T04:16:27.654Z,4.83
2018-09-03T04:18:56.207Z,5.12
2018-09-03T04:21:25.056Z,5.03
2018-09-03T04:23:53.615Z,5.67
2018-09-03T04:26:22.171Z,5.20
2018-09-03T04:28:50.801Z,4.37
2018-09-03T04:31:19.346Z,4.37
2018-09-03T04:33:47.951Z,4.87
2018-09-03T04:36:16.509Z,5.12
2018-09-03T04:38:45.096Z,4.78
2018-09-03T04:41:13.643Z,5.80
2018-09-03T04:43:42.206Z,5.72
2018-09-03T04:46:10.956Z,5.30
2018-09-03T04:48:39.519Z,5.33
2018-09-03T04:51:08.086Z,4.90
2018-09-03T04:53:36.648Z,5.03
2018-09-03T04:56:05.231Z,5.12
2018-09-03T04:58:33.794Z,5.10
2018-09-03T05:01:02.349Z,6.15
2018-09-03T05:03:31.210Z,5.20
2018-09-03T05:05:59.828Z,5.15
2018-09-03T05:08:28.663Z,4.95
2018-09-03T05:10:57.214Z,6.58
2018-09-03T05:13:25.770Z,4.25
2018-09-03T05:15:54.680Z,4.50
2018-09-03T05:18:23.301Z,5.50
2018-09-03T05:20:51.893Z,6.05
2018-09-03T05:23:20.495Z,4.58
2018-09-03T05:25:49.075Z,4.60
2018-09-03T05:28:17.871Z,5.50
2018-09-03T05:30:46.472Z,5.00
2018-09-03T05:33:15.101Z,4.92
2018-09-03T05:35:43.657Z,5.28
2018-09-03T05:38:12.236Z,5.72
2018-09-03T05:40:41.543Z,5.55
2018-09-03T05:43:10.177Z,5.20
2018-09-03T05:45:38.698Z,6.08
2018-09-03T05:48:07.271Z,4.78
2018-09-03T05:50:35.832Z,4.45
2018-09-03T05:53:04.465Z,5.40
2018-09-03T05:55:33.182Z,5.55
2018-09-03T05:58:01.891Z,6.05
2018-09-03T06:00:30.619Z,5.90
2018-09-03T06:02:59.186Z,6.00
2018-09-03T06:05:27.751Z,6.25
2018-09-03T06:07:56.408Z,6.75
2018-09-03T06:10:25.144Z,6.08
2018-09-03T06:12:53.679Z,5.87
2018-09-03T06:15:22.308Z,6.47
2018-09-03T06:17:50.887Z,6.20
2018-09-03T06:20:19.664Z,6.12
2018-09-03T06:22:48.324Z,5.80
2018-09-03T06:25:16.877Z,5.83
2018-09-03T06:27:45.439Z,5.78
2018-09-03T06:30:14.027Z,5.20
2018-09-03T06:32:42.611Z,5.40
2018-09-03T06:35:11.178Z,5.75
2018-09-03T06:37:39.730Z,5.05
2018-09-03T06:40:08.370Z,6.53
2018-09-03T06:42:37.007Z,5.12
2018-09-03T06:45:05.790Z,3.87
2018-09-03T06:47:34.419Z,4.03
2018-09-03T06:51:32.869Z,4.42
2018-09-03T06:54:01.540Z,4.97
2018-09-03T06:56:30.970Z,4.08
2018-09-03T06:58:59.557Z,3.50
2018-09-03T07:01:28.189Z,4.10
2018-09-03T07:03:56.847Z,4.20
2018-09-03T07:06:25.419Z,4.65
2018-09-03T07:08:53.968Z,3.50
2018-09-03T07:11:22.537Z,4.10
2018-09-03T07:13:51.111Z,4.00
2018-09-03T07:16:19.671Z,3.55
2018-09-03T07:18:48.675Z,4.15
2018-09-03T07:21:17.226Z,4.70
2018-09-03T07:23:45.786Z,3.85
2018-09-03T07:26:14.379Z,4.10
2018-09-03T07:28:42.954Z,4.05
2018-09-03T07:31:11.751Z,4.10
2018-09-03T07:33:40.337Z,4.55
2018-09-03T07:36:08.902Z,4.28
2018-09-03T07:38:37.458Z,4.03
2018-09-03T07:41:06.391Z,6.53
2018-09-03T07:43:35.004Z,3.72
2018-09-03T07:46:03.640Z,4.28
2018-09-03T07:48:32.376Z,4.40
2018-09-03T07:51:01.001Z,4.35
2018-09-03T07:53:29.543Z,3.77
2018-09-03T07:55:58.110Z,4.33
2018-09-03T07:58:26.670Z,4.37
2018-09-03T08:00:55.555Z,3.90
2018-09-03T08:03:24.119Z,3.50
2018-09-03T08:05:52.963Z,4.00
2018-09-03T08:08:21.604Z,4.10
2018-09-03T08:10:50.183Z,4.00
2018-09-03T08:13:24.334Z,3.10
2018-09-03T08:15:52.901Z,3.60
2018-09-03T08:18:21.514Z,3.10
2018-09-03T08:20:50.063Z,3.60
2018-09-03T08:23:18.621Z,3.20
2018-09-03T08:25:47.576Z,2.90
2018-09-03T08:28:16.425Z,3.15
2018-09-03T08:30:45.029Z,3.00
2018-09-03T08:33:13.589Z,3.02
2018-09-03T08:35:42.331Z,3.50
2018-09-03T08:38:11.066Z,2.90
2018-09-03T08:40:39.743Z,2.35
2018-09-03T08:43:08.359Z,3.17
2018-09-03T08:45:36.923Z,3.67
2018-09-03T08:48:05.548Z,3.42
2018-09-03T08:50:34.415Z,2.67
2018-09-03T08:53:02.984Z,2.85
2018-09-03T08:55:31.598Z,2.60
2018-09-03T08:58:00.143Z,2.83
2018-09-03T09:00:28.699Z,2.65
2018-09-03T09:02:57.505Z,3.77
2018-09-03T09:05:26.071Z,2.65
2018-09-03T09:07:55.003Z,2.92
2018-09-03T09:10:23.978Z,2.52
2018-09-03T09:12:52.534Z,2.58
2018-09-03T09:15:21.117Z,2.12
2018-09-03T09:17:49.794Z,2.10
2018-09-03T09:20:18.359Z,2.12
2018-09-03T09:22:46.918Z,2.23
2018-09-03T09:25:15.808Z,2.27
2018-09-03T09:27:44.360Z,2.67
2018-09-03T09:30:12.933Z,2.25
2018-09-03T09:32:41.479Z,2.40
2018-09-03T09:35:10.041Z,2.20
2018-09-03T09:37:38.598Z,2.27
2018-09-03T09:40:07.151Z,2.50
2018-09-03T09:42:37.370Z,2.23
2018-09-03T09:45:05.987Z,2.60
2018-09-03T09:47:34.534Z,2.83
2018-09-03T09:50:03.183Z,2.50
2018-09-03T09:52:32.247Z,2.93
2018-09-03T09:55:00.872Z,2.67
2018-09-03T09:57:29.464Z,3.33
2018-09-03T09:59:58.039Z,2.47
2018-09-03T10:02:27.118Z,2.60
2018-09-03T10:04:55.702Z,2.77
2018-09-03T10:07:24.242Z,2.73
2018-09-03T10:09:52.930Z,2.47
2018-09-03T10:12:36.043Z,2.37
2018-09-03T10:15:04.794Z,2.17
2018-09-03T10:17:33.347Z,1.90
2018-09-03T10:20:02.119Z,2.20
2018-09-03T10:22:30.683Z,2.93
2018-09-03T10:24:59.226Z,2.73
2018-09-03T10:27:28.054Z,2.87
2018-09-03T10:29:56.607Z,2.40
2018-09-03T10:32:25.935Z,2.77
2018-09-03T10:34:54.805Z,2.73
2018-09-03T10:37:23.350Z,2.17
2018-09-03T10:39:52.359Z,2.13
2018-09-03T10:42:23.001Z,1.60
2018-09-03T10:44:51.585Z,1.73
2018-09-03T10:47:20.226Z,1.80
2018-09-03T10:49:48.754Z,2.13
2018-09-03T10:52:17.451Z,2.43
2018-09-03T10:54:46.293Z,2.60
2018-09-03T10:57:15.124Z,1.87
2018-09-03T10:59:43.707Z,2.00
2018-09-03T11:02:12.360Z,1.90
2018-09-03T11:04:40.939Z,1.93
2018-09-03T11:07:09.543Z,2.37
2018-09-03T11:09:38.433Z,1.93
2018-09-03T11:12:07.783Z,1.97
2018-09-03T11:14:36.527Z,3.23
2018-09-03T11:17:05.111Z,3.10
2018-09-03T11:19:37.102Z,2.03
2018-09-03T11:22:06.027Z,1.77
2018-09-03T11:24:34.634Z,2.40
2018-09-03T11:27:03.187Z,2.03
2018-09-03T11:29:31.754Z,2.00
2018-09-03T11:32:00.370Z,1.80
2018-09-03T11:34:28.921Z,2.73
2018-09-03T11:36:57.666Z,2.40
2018-09-03T11:39:26.219Z,2.00
2018-09-03T11:41:54.765Z,1.80
2018-09-03T11:44:23.320Z,1.87
2018-09-03T11:46:51.935Z,2.50
2018-09-03T11:49:20.482Z,1.97
2018-09-03T11:51:49.090Z,2.07
2018-09-03T11:54:17.705Z,1.90
2018-09-03T11:56:46.266Z,2.13
2018-09-03T11:59:14.859Z,2.30
2018-09-03T12:01:43.399Z,1.50
2018-09-03T12:04:12.165Z,2.40
2018-09-03T12:06:40.737Z,2.20
2018-09-03T12:09:10.457Z,2.03
2018-09-03T12:11:39.278Z,2.23
2018-09-03T12:14:17.406Z,2.53
2018-09-03T12:16:46.078Z,2.60
2018-09-03T12:19:14.623Z,1.87
2018-09-03T12:21:43.189Z,1.77
2018-09-03T12:24:11.921Z,1.73
2018-09-03T12:26:40.482Z,2.20
2018-09-03T12:29:09.053Z,2.43
2018-09-03T12:31:37.645Z,2.10
2018-09-03T12:34:06.235Z,2.63
2018-09-03T12:36:34.788Z,2.30
2018-09-03T12:39:03.774Z,2.20
2018-09-03T12:41:32.722Z,2.20
2018-09-03T12:44:01.294Z,2.10
2018-09-03T12:46:29.876Z,2.57
2018-09-03T12:48:58.449Z,2.00
2018-09-03T12:51:27.003Z,1.70
2018-09-03T12:53:55.568Z,2.40
2018-09-03T12:56:24.170Z,2.10
2018-09-03T12:58:52.872Z,2.50
2018-09-03T13:01:21.435Z,2.30
2018-09-03T13:03:49.987Z,2.40
2018-09-03T13:06:18.585Z,2.00
2018-09-03T13:08:47.130Z,2.17
2018-09-03T13:11:15.794Z,2.13
2018-09-03T13:13:44.353Z,2.10
2018-09-03T13:16:12.939Z,2.10
2018-09-03T13:18:41.540Z,2.13
2018-09-03T13:21:10.079Z,2.17
2018-09-03T13:23:38.820Z,2.10
2018-09-03T13:26:07.425Z,1.90
2018-09-03T13:28:35.992Z,2.40
2018-09-03T13:31:04.557Z,2.63
2018-09-03T13:33:33.111Z,2.87
2018-09-03T13:36:01.837Z,2.20
2018-09-03T13:38:30.660Z,2.07
2018-09-03T13:40:59.680Z,2.30
2018-09-03T13:43:28.339Z,2.30
2018-09-03T13:45:56.895Z,2.23
2018-09-03T13:48:25.471Z,2.10
2018-09-03T13:50:54.083Z,1.63
2018-09-03T13:53:22.638Z,2.20
2018-09-03T13:55:51.451Z,2.47
2018-09-03T13:58:20.015Z,2.20
2018-09-03T14:00:48.565Z,2.13
2018-09-03T14:03:17.134Z,3.07
2018-09-03T14:05:45.811Z,2.17
2018-09-03T14:08:14.683Z,2.50
2018-09-03T14:10:43.348Z,2.40
2018-09-03T14:13:11.923Z,2.33
2018-09-03T14:15:40.490Z,2.50
2018-09-03T14:18:09.091Z,2.87
2018-09-03T14:20:37.910Z,2.03
2018-09-03T14:23:06.875Z,2.23
2018-09-03T14:25:35.524Z,2.13
2018-09-03T14:28:04.091Z,2.27
2018-09-03T14:30:32.663Z,2.17
2018-09-03T14:33:01.218Z,2.43
2018-09-03T14:35:29.953Z,3.27
2018-09-03T14:37:58.530Z,2.10
2018-09-03T14:40:27.107Z,1.97
2018-09-03T14:42:55.733Z,2.30
2018-09-03T14:45:24.338Z,2.53
2018-09-03T14:47:52.913Z,2.77
2018-09-03T14:50:21.808Z,2.30
2018-09-03T14:52:50.485Z,2.40
2018-09-03T14:55:19.036Z,2.97
2018-09-03T14:57:47.600Z,2.43
2018-09-03T15:00:16.143Z,2.70
2018-09-03T15:02:44.697Z,2.60
2018-09-03T15:05:13.265Z,2.47
2018-09-03T15:07:42.158Z,2.30
2018-09-03T15:10:10.719Z,2.33
2018-09-03T15:12:39.287Z,2.40
2018-09-03T15:15:07.948Z,1.93
2018-09-03T15:17:36.684Z,2.60
2018-09-03T15:20:06.139Z,4.80
2018-09-03T15:22:35.343Z,2.30
2018-09-03T15:25:04.368Z,2.73
2018-09-03T15:27:33.119Z,2.53
2018-09-03T15:30:01.799Z,3.50
2018-09-03T15:32:30.351Z,2.40
2018-09-03T15:34:59.171Z,2.27
2018-09-03T15:37:28.203Z,2.43
2018-09-03T15:39:56.759Z,2.20
2018-09-03T15:42:25.336Z,3.00
2018-09-03T15:44:53.993Z,2.87
2018-09-03T15:47:22.554Z,2.70
2018-09-03T15:49:51.423Z,2.20
2018-09-03T15:52:20.001Z,2.43
2018-09-03T15:54:48.779Z,3.17
2018-09-03T15:57:17.391Z,2.77
2018-09-03T15:59:45.955Z,2.43
2018-09-03T16:02:14.626Z,2.80
2018-09-03T16:04:43.425Z,2.67
2018-09-03T16:07:12.224Z,3.30
2018-09-03T16:09:40.792Z,3.40
2018-09-03T16:12:09.365Z,2.70
2018-09-03T16:14:37.933Z,3.00
2018-09-03T16:17:06.528Z,2.90
2018-09-03T16:19:35.244Z,3.20
2018-09-03T16:22:03.870Z,2.83
2018-09-03T16:24:32.472Z,2.50
2018-09-03T16:27:01.304Z,3.97
2018-09-03T16:29:29.879Z,2.80
2018-09-03T16:31:58.443Z,3.30
2018-09-03T16:34:27.767Z,2.73
2018-09-03T16:36:56.315Z,3.07
2018-09-03T16:39:24.958Z,2.73
2018-09-03T16:41:53.533Z,3.10
2018-09-03T16:44:22.091Z,2.87
2018-09-03T16:46:50.997Z,2.83
2018-09-03T16:49:19.555Z,3.10
2018-09-03T16:51:48.441Z,2.90
2018-09-03T16:54:17.033Z,2.23
2018-09-03T16:56:45.619Z,3.27
2018-09-03T16:59:14.426Z,2.95
2018-09-03T17:01:43.010Z,3.20
2018-09-03T17:04:11.668Z,3.20
2018-09-03T17:06:40.339Z,4.20
2018-09-03T17:09:08.922Z,2.90
2018-09-03T17:11:37.507Z,3.05
2018-09-03T17:14:06.207Z,2.65
2018-09-03T17:16:35.223Z,3.00
2018-09-03T17:19:03.831Z,3.40
2018-09-03T17:21:32.427Z,2.77
2018-09-03T17:24:00.981Z,4.40
2018-09-03T17:26:29.559Z,3.58
2018-09-03T17:28:58.606Z,3.00
2018-09-03T17:31:27.039Z,2.77
2018-09-03T17:33:55.614Z,3.27
2018-09-03T17:36:24.172Z,2.60
2018-09-03T17:38:52.821Z,2.67
2018-09-03T17:41:21.424Z,3.55
2018-09-03T17:43:49.995Z,3.10
2018-09-03T17:46:18.566Z,2.90
2018-09-03T17:48:47.131Z,3.55
2018-09-03T17:51:15.722Z,2.40
2018-09-03T17:53:44.503Z,2.85
2018-09-03T17:56:13.055Z,3.15
2018-09-03T17:58:41.678Z,2.95
2018-09-03T18:01:10.397Z,3.50
2018-09-03T18:03:39.375Z,3.12
2018-09-03T18:06:08.002Z,2.90
2018-09-03T18:08:36.611Z,2.80
2018-09-03T18:11:05.275Z,2.72
2018-09-03T18:13:33.829Z,3.08
2018-09-03T18:16:02.377Z,2.80
2018-09-03T18:18:30.940Z,2.70
2018-09-03T18:20:59.909Z,3.47
2018-09-03T18:23:28.634Z,2.95
2018-09-03T18:25:57.199Z,3.60
2018-09-03T18:28:25.787Z,2.85
2018-09-03T18:30:54.575Z,2.80
2018-09-03T18:33:23.138Z,3.05
2018-09-03T18:35:51.710Z,2.95
2018-09-03T18:38:20.278Z,3.37
2018-09-03T18:40:48.855Z,2.42
2018-09-03T18:43:17.654Z,2.72
2018-09-03T18:45:46.367Z,3.62
2018-09-03T18:48:14.917Z,2.95
2018-09-03T18:50:43.465Z,3.02
2018-09-03T18:53:12.023Z,3.30
2018-09-03T18:55:40.825Z,3.77
2018-09-03T18:58:09.383Z,3.33
2018-09-03T19:00:37.935Z,3.05
2018-09-03T19:03:06.617Z,3.27
2018-09-03T19:05:35.237Z,3.45
2018-09-03T19:08:03.827Z,3.50
2018-09-03T19:10:32.372Z,2.92
2018-09-03T19:13:00.931Z,3.10
2018-09-03T19:15:29.902Z,4.25
2018-09-03T19:17:58.455Z,3.30
2018-09-03T19:20:27.053Z,3.27
2018-09-03T19:22:55.619Z,3.62
2018-09-03T19:25:24.283Z,3.67
2018-09-03T19:27:52.823Z,3.60
2018-09-03T19:30:21.387Z,3.83
2018-09-03T19:32:50.179Z,3.10
2018-09-03T19:35:18.723Z,3.50
2018-09-03T19:37:47.336Z,3.45
2018-09-03T19:40:16.020Z,2.42
2018-09-03T19:42:45.044Z,4.03
2018-09-03T19:45:13.598Z,2.83
2018-09-03T19:47:42.177Z,3.45
2018-09-03T19:50:10.750Z,3.25
2018-09-03T19:52:39.306Z,2.70
2018-09-03T19:55:07.860Z,3.58
2018-09-03T19:57:36.409Z,2.92
2018-09-03T20:00:05.637Z,3.55
2018-09-03T20:02:34.193Z,3.45
2018-09-03T20:05:02.810Z,2.92
2018-09-03T20:07:31.549Z,4.08
2018-09-03T20:10:00.125Z,3.30
2018-09-03T20:12:28.704Z,3.37
2018-09-03T20:14:57.328Z,3.08
2018-09-03T20:17:26.279Z,3.30
2018-09-03T20:19:54.903Z,2.72
2018-09-03T20:22:23.480Z,3.90
2018-09-03T20:24:52.056Z,3.15
2018-09-03T20:27:20.837Z,4.08
2018-09-03T20:29:49.673Z,3.58
2018-09-03T20:32:18.227Z,3.40
2018-09-03T20:34:46.799Z,3.65
2018-09-03T20:37:15.375Z,4.03
2018-09-03T20:39:43.936Z,3.90
2018-09-03T20:42:12.483Z,2.75
2018-09-03T20:44:41.164Z,4.15
2018-09-03T20:47:09.694Z,3.55
2018-09-03T20:49:38.256Z,3.60
2018-09-03T20:52:06.438Z,3.37
2018-09-03T20:54:34.995Z,3.85
2018-09-03T20:57:03.550Z,3.95
2018-09-03T20:59:32.127Z,3.85
2018-09-03T21:02:00.705Z,4.00
2018-09-03T21:04:29.267Z,3.10
2018-09-03T21:06:57.546Z,4.45
2018-09-03T21:09:26.095Z,4.78
2018-09-03T21:11:55.515Z,3.62
2018-09-03T21:14:24.637Z,3.70
2018-09-03T21:16:53.235Z,3.90
2018-09-03T21:19:21.792Z,4.25
2018-09-03T21:21:50.388Z,4.40
2018-09-03T21:24:18.937Z,3.60
2018-09-03T21:26:47.498Z,3.98
2018-09-03T21:29:16.055Z,3.87
2018-09-03T21:31:44.716Z,4.28
2018-09-03T21:34:13.281Z,3.98
2018-09-03T21:36:42.416Z,4.20
2018-09-03T21:39:11.026Z,3.72
2018-09-03T21:41:39.563Z,4.53
2018-09-03T21:44:08.226Z,4.45
2018-09-03T21:46:36.799Z,3.55
2018-09-03T21:49:05.773Z,4.60
2018-09-03T21:51:34.328Z,4.45
2018-09-03T21:54:02.895Z,4.12
2018-09-03T21:56:31.501Z,3.58
2018-09-03T21:59:00.055Z,4.45
2018-09-03T22:01:28.644Z,4.37
2018-09-03T22:03:57.206Z,3.80
2018-09-03T22:06:25.755Z,4.42
2018-09-03T22:08:54.497Z,4.00
2018-09-03T22:11:23.055Z,3.50
2018-09-03T22:13:51.610Z,5.00
2018-09-03T22:16:20.174Z,4.80
2018-09-03T22:18:48.975Z,3.80
2018-09-03T22:21:17.563Z,4.03
2018-09-03T22:23:46.119Z,4.53
2018-09-03T22:26:14.718Z,4.30
2018-09-03T22:28:43.256Z,4.67
2018-09-03T22:31:11.815Z,3.70
2018-09-03T22:33:40.412Z,4.83
2018-09-03T22:36:09.168Z,4.70
2018-09-03T22:38:37.745Z,4.35
2018-09-03T22:41:06.355Z,4.78
2018-09-03T22:43:34.902Z,4.20
2018-09-03T22:46:03.475Z,4.05
2018-09-03T22:48:32.026Z,4.15
2018-09-03T22:51:00.599Z,4.28
2018-09-03T22:53:29.214Z,4.45
2018-09-03T22:55:57.807Z,4.95
2018-09-03T22:58:26.360Z,4.87
2018-09-03T23:00:55.031Z,4.65
2018-09-03T23:03:23.580Z,4.67
2018-09-03T23:05:52.159Z,5.20
2018-09-03T23:08:20.715Z,5.20
2018-09-03T23:10:49.383Z,5.12
2018-09-03T23:13:17.956Z,4.33
2018-09-03T23:15:52.371Z,3.47
2018-09-03T23:18:22.699Z,4.40
2018-09-03T23:20:51.259Z,4.72
2018-09-03T23:23:20.347Z,4.50
2018-09-03T23:25:49.011Z,3.85
2018-09-03T23:28:17.584Z,4.95
2018-09-03T23:30:46.131Z,4.40
2018-09-03T23:33:14.686Z,4.25
2018-09-03T23:35:43.249Z,4.87
2018-09-03T23:38:11.790Z,4.15
2018-09-03T23:40:40.377Z,5.10
2018-09-03T23:43:08.922Z,5.37
2018-09-03T23:45:37.514Z,4.20
2018-09-03T23:48:06.304Z,5.08
2018-09-03T23:50:35.194Z,5.12
2018-09-03T23:53:04.595Z,4.20
2018-09-03T23:55:33.250Z,4.33
2018-09-03T23:58:01.808Z,5.47
